createdAt,value
2023-05-10T00:00:44.121Z,16.60
2023-05-10T00:03:11.242Z,18.73
2023-05-10T00:05:37.829Z,18.13
2023-05-10T00:08:04.342Z,18.33
2023-05-10T00:10:30.882Z,20.35
2023-05-10T00:12:57.432Z,19.48
2023-05-10T00:15:23.870Z,20.73
2023-05-10T00:17:51.844Z,17.58
2023-05-10T00:20:18.558Z,19.13
2023-05-10T00:22:45.304Z,23.70
2023-05-10T00:25:11.793Z,21.85
2023-05-10T00:27:38.705Z,23.05
2023-05-10T00:30:05.794Z,25.35
2023-05-10T00:32:32.432Z,28.20
2023-05-10T00:35:00.139Z,24.45
2023-05-10T00:37:28.656Z,28.25
2023-05-10T00:39:55.351Z,29.77
2023-05-10T00:42:22.177Z,33.13
2023-05-10T00:44:49.012Z,30.02
2023-05-10T00:47:16.892Z,36.67
2023-05-10T00:49:44.200Z,35.15
2023-05-10T00:52:13.675Z,35.85
2023-05-10T00:54:40.294Z,34.58
2023-05-10T00:57:06.841Z,37.90
2023-05-10T00:59:33.496Z,35.15
2023-05-10T01:02:00.005Z,36.05
2023-05-10T01:04:26.888Z,37.67
2023-05-10T01:06:54.689Z,37.88
2023-05-10T01:09:22.903Z,37.53
2023-05-10T01:11:50.302Z,40.10
2023-05-10T01:14:20.738Z,37.97
2023-05-10T01:16:49.472Z,36.92
2023-05-10T01:19:26.993Z,36.67
2023-05-10T01:22:19.778Z,37.05
2023-05-10T01:25:02.795Z,37.25
2023-05-10T01:28:04.521Z,34.95
2023-05-10T01:30:58.985Z,37.85
2023-05-10T01:33:48.682Z,32.67
2023-05-10T01:36:36.635Z,37.47
2023-05-10T01:39:17.006Z,36.22
2023-05-10T01:41:53.941Z,38.65
2023-05-10T01:44:40.990Z,34.25
2023-05-10T01:47:18.460Z,42.72
2023-05-10T01:49:51.270Z,38.15
2023-05-10T01:52:20.773Z,36.25
2023-05-10T01:55:12.446Z,33.83
2023-05-10T01:57:41.580Z,34.97
2023-05-10T02:00:09.694Z,36.03
2023-05-10T02:02:47.339Z,35.78
2023-05-10T02:05:16.221Z,37.63
2023-05-10T02:07:43.542Z,34.67
2023-05-10T02:10:11.604Z,41.92
2023-05-10T02:12:42.594Z,40.35
2023-05-10T02:15:11.385Z,37.03
2023-05-10T02:17:40.057Z,38.83
2023-05-10T02:20:09.507Z,42.50
2023-05-10T02:22:37.693Z,39.63
2023-05-10T02:25:05.242Z,37.28
2023-05-10T02:27:32.409Z,42.10
2023-05-10T02:29:59.517Z,37.42
2023-05-10T02:32:28.701Z,35.08
2023-05-10T02:34:57.993Z,37.45
2023-05-10T02:37:26.309Z,39.10
2023-05-10T02:39:55.944Z,40.90
2023-05-10T02:42:30.131Z,40.78
2023-05-10T02:45:02.273Z,39.55
2023-05-10T02:47:30.029Z,39.42
2023-05-10T02:49:56.603Z,40.90
2023-05-10T02:52:27.364Z,40.78
2023-05-10T02:54:57.897Z,38.53
2023-05-10T02:57:32.724Z,43.35
2023-05-10T03:00:01.137Z,44.45
2023-05-10T03:02:28.000Z,39.95
2023-05-10T03:04:54.512Z,41.17
2023-05-10T03:07:22.323Z,43.85
2023-05-10T03:09:51.604Z,50.25
2023-05-10T03:12:33.563Z,52.47
2023-05-10T03:15:32.245Z,49.00
2023-05-10T03:18:10.416Z,46.70
2023-05-10T03:20:42.320Z,51.08
2023-05-10T03:23:14.628Z,47.85
2023-05-10T03:25:42.125Z,49.63
2023-05-10T03:28:09.684Z,57.33
2023-05-10T03:30:36.704Z,51.08
2023-05-10T03:33:10.114Z,49.72
2023-05-10T03:35:40.345Z,54.90
2023-05-10T03:38:06.954Z,49.97
2023-05-10T03:40:33.514Z,54.35
2023-05-10T03:43:00.479Z,51.58
2023-05-10T03:45:27.711Z,47.15
2023-05-10T03:47:54.945Z,50.72
2023-05-10T03:50:21.995Z,54.40
2023-05-10T03:52:48.765Z,49.03
2023-05-10T03:55:15.269Z,56.80
2023-05-10T03:57:41.717Z,52.25
2023-05-10T04:00:09.166Z,60.35
2023-05-10T04:02:41.848Z,45.88
2023-05-10T04:05:11.857Z,53.92
2023-05-10T04:07:38.413Z,50.17
2023-05-10T04:10:05.326Z,49.75
2023-05-10T04:12:31.865Z,48.83
2023-05-10T04:14:58.504Z,58.00
2023-05-10T04:17:25.000Z,45.55
2023-05-10T04:19:53.987Z,49.72
2023-05-10T04:22:20.441Z,49.60
2023-05-10T04:24:46.937Z,46.17
2023-05-10T04:27:13.699Z,41.70
2023-05-10T04:29:40.244Z,46.33
2023-05-10T04:32:06.724Z,45.97
2023-05-10T04:34:35.033Z,45.78
2023-05-10T04:37:01.601Z,46.15
2023-05-10T04:39:28.106Z,44.60
2023-05-10T04:41:54.564Z,48.38
2023-05-10T04:44:21.159Z,48.20
2023-05-10T04:46:47.614Z,47.53
2023-05-10T04:49:15.259Z,52.30
2023-05-10T04:51:41.712Z,44.25
2023-05-10T04:54:08.153Z,47.28
2023-05-10T04:56:34.822Z,48.08
2023-05-10T04:59:01.374Z,47.38
2023-05-10T05:01:28.080Z,48.95
2023-05-10T05:03:54.931Z,49.80
2023-05-10T05:06:25.854Z,47.65
2023-05-10T05:08:52.463Z,51.08
2023-05-10T05:11:18.949Z,52.10
2023-05-10T05:13:45.363Z,47.03
2023-05-10T05:16:14.564Z,46.38
2023-05-10T05:18:41.069Z,54.60
2023-05-10T05:21:18.035Z,47.03
2023-05-10T05:23:44.917Z,57.50
2023-05-10T05:26:11.643Z,53.38
2023-05-10T05:28:38.761Z,49.67
2023-05-10T05:31:06.597Z,52.92
2023-05-10T05:33:33.207Z,54.30
2023-05-10T05:36:05.460Z,53.08
2023-05-10T05:38:32.390Z,60.47
2023-05-10T05:40:58.971Z,46.00
2023-05-10T05:43:25.710Z,58.65
2023-05-10T05:45:54.836Z,51.70
2023-05-10T05:48:22.026Z,51.45
2023-05-10T05:50:48.481Z,52.13
2023-05-10T05:53:15.093Z,42.30
2023-05-10T05:55:41.597Z,48.83
2023-05-10T05:58:09.083Z,46.13
2023-05-10T06:00:35.745Z,47.35
2023-05-10T06:03:02.341Z,46.38
2023-05-10T06:05:30.976Z,38.63
2023-05-10T06:07:57.422Z,39.90
2023-05-10T06:10:23.977Z,40.17
2023-05-10T06:12:51.812Z,40.28
2023-05-10T06:15:18.488Z,39.85
2023-05-10T06:17:45.276Z,35.05
2023-05-10T06:20:12.576Z,40.30
2023-05-10T06:22:39.368Z,43.10
2023-05-10T06:25:06.287Z,37.63
2023-05-10T06:27:32.746Z,39.55
2023-05-10T06:30:11.923Z,37.20
2023-05-10T06:32:39.751Z,39.80
2023-05-10T06:35:06.863Z,36.63
2023-05-10T06:37:33.401Z,33.78
2023-05-10T06:39:59.906Z,31.08
2023-05-10T06:42:26.528Z,31.38
2023-05-10T06:44:52.996Z,36.42
2023-05-10T06:47:19.770Z,29.23
2023-05-10T06:49:46.255Z,27.98
2023-05-10T06:52:13.154Z,27.98
2023-05-10T06:54:39.642Z,28.77
2023-05-10T06:57:16.065Z,29.13
2023-05-10T06:59:50.487Z,21.15
2023-05-10T07:02:17.473Z,21.63
2023-05-10T07:04:44.230Z,19.38
2023-05-10T07:07:10.755Z,20.85
2023-05-10T07:09:37.312Z,21.55
2023-05-10T07:12:03.971Z,16.55
2023-05-10T07:14:30.371Z,16.90
2023-05-10T07:16:56.877Z,18.95
2023-05-10T07:19:23.377Z,16.70
2023-05-10T07:21:49.886Z,12.82
2023-05-10T07:24:16.336Z,16.50
2023-05-10T07:26:42.842Z,13.15
2023-05-10T07:29:09.389Z,15.98
2023-05-10T07:31:35.975Z,13.45
2023-05-10T07:34:02.457Z,17.20
2023-05-10T07:36:28.936Z,13.30
2023-05-10T07:38:58.519Z,14.45
2023-05-10T07:41:24.975Z,16.80
2023-05-10T07:43:51.431Z,12.77
2023-05-10T07:46:17.998Z,13.93
2023-05-10T07:48:44.536Z,13.60
2023-05-10T07:51:11.717Z,16.48
2023-05-10T07:53:38.810Z,15.63
2023-05-10T07:56:27.519Z,13.82
2023-05-10T08:01:21.783Z,12.95
2023-05-10T08:03:48.613Z,12.73
2023-05-10T08:06:16.451Z,11.52
2023-05-10T08:08:43.153Z,12.27
2023-05-10T08:11:09.615Z,12.70
2023-05-10T08:13:36.011Z,11.73
2023-05-10T08:16:02.763Z,12.50
2023-05-10T08:18:29.324Z,11.90
2023-05-10T08:20:56.166Z,13.07
2023-05-10T08:23:22.660Z,10.88
2023-05-10T08:25:49.446Z,11.98
2023-05-10T08:28:16.100Z,14.55
2023-05-10T08:30:42.532Z,10.80
2023-05-10T08:33:08.961Z,16.88
2023-05-10T08:35:35.852Z,14.45
2023-05-10T08:38:02.507Z,14.95
2023-05-10T08:40:29.163Z,11.80
2023-05-10T08:43:10.489Z,16.55
2023-05-10T08:45:41.839Z,12.00
2023-05-10T08:48:10.440Z,14.77
2023-05-10T08:50:38.321Z,11.73
2023-05-10T08:53:11.564Z,13.55
2023-05-10T08:55:39.660Z,13.15
2023-05-10T08:58:06.866Z,12.48
2023-05-10T09:00:34.229Z,12.18
2023-05-10T09:03:01.821Z,15.85
2023-05-10T09:05:28.578Z,14.75
2023-05-10T09:07:55.059Z,17.92
2023-05-10T09:10:21.869Z,14.15
2023-05-10T09:12:49.677Z,11.38
2023-05-10T09:15:16.946Z,8.80
2023-05-10T09:17:45.304Z,7.30
2023-05-10T09:20:11.928Z,9.48
2023-05-10T09:22:39.308Z,13.20
2023-05-10T09:25:07.163Z,8.48
2023-05-10T09:27:34.708Z,7.30
2023-05-10T09:30:01.680Z,9.75
2023-05-10T09:32:48.652Z,7.32
2023-05-10T09:35:17.309Z,7.07
2023-05-10T09:37:47.154Z,8.95
2023-05-10T09:40:16.310Z,7.30
2023-05-10T09:43:07.030Z,6.90
2023-05-10T09:45:37.166Z,5.75
2023-05-10T09:48:05.718Z,5.85
2023-05-10T09:50:32.316Z,4.80
2023-05-10T09:53:01.365Z,5.78
2023-05-10T09:55:39.753Z,4.97
2023-05-10T09:58:10.928Z,5.32
2023-05-10T10:00:45.031Z,5.72
2023-05-10T10:03:17.293Z,6.47
2023-05-10T10:05:44.993Z,6.35
2023-05-10T10:08:12.975Z,4.95
2023-05-10T10:10:42.807Z,4.85
2023-05-10T10:16:04.896Z,6.35
2023-05-10T10:18:31.955Z,7.03
2023-05-10T10:20:59.499Z,10.30
2023-05-10T10:23:26.404Z,4.85
2023-05-10T10:25:56.252Z,4.68
2023-05-10T10:28:40.461Z,5.85
2023-05-10T10:31:29.440Z,7.63
2023-05-10T10:34:08.422Z,5.85
2023-05-10T10:36:55.912Z,6.50
2023-05-10T10:39:22.524Z,7.32
2023-05-10T10:41:54.238Z,6.88
2023-05-10T10:44:23.879Z,5.90
2023-05-10T10:47:35.196Z,7.25
2023-05-10T10:50:01.921Z,6.40
2023-05-10T10:52:36.345Z,7.75
2023-05-10T10:55:25.839Z,4.85
2023-05-10T10:58:05.070Z,7.03
2023-05-10T11:00:38.132Z,7.03
2023-05-10T11:03:09.084Z,6.28
2023-05-10T11:05:36.651Z,8.55
2023-05-10T11:08:28.857Z,6.70
2023-05-10T11:11:01.325Z,5.72
2023-05-10T11:13:30.953Z,6.50
2023-05-10T11:15:58.442Z,7.00
2023-05-10T11:18:30.448Z,6.88
2023-05-10T11:21:03.655Z,5.72
2023-05-10T11:23:48.937Z,5.35
2023-05-10T11:26:16.983Z,6.07
2023-05-10T11:28:48.171Z,5.53
2023-05-10T11:31:16.076Z,5.03
2023-05-10T11:33:53.470Z,6.10
2023-05-10T11:36:22.873Z,5.82
2023-05-10T11:38:49.657Z,4.65
2023-05-10T11:41:18.471Z,6.25
2023-05-10T11:43:47.703Z,4.90
2023-05-10T11:46:14.781Z,5.65
2023-05-10T11:48:42.433Z,5.15
2023-05-10T11:51:10.397Z,5.70
2023-05-10T11:53:36.922Z,5.47
2023-05-10T11:56:07.696Z,4.07
2023-05-10T11:58:35.162Z,6.28
2023-05-10T12:01:01.859Z,4.38
2023-05-10T12:03:29.188Z,4.63
2023-05-10T12:05:57.157Z,6.95
2023-05-10T12:08:26.073Z,3.92
2023-05-10T12:11:04.256Z,4.78
2023-05-10T12:13:30.716Z,4.75
2023-05-10T12:16:01.521Z,6.32
2023-05-10T12:18:27.976Z,3.97
2023-05-10T12:20:54.824Z,4.03
2023-05-10T12:23:21.744Z,4.30
2023-05-10T12:25:48.183Z,3.85
2023-05-10T12:28:14.658Z,3.65
2023-05-10T12:30:41.143Z,3.50
2023-05-10T12:33:16.205Z,3.40
2023-05-10T12:35:47.719Z,4.97
2023-05-10T12:38:35.604Z,5.50
2023-05-10T12:41:05.206Z,2.63
2023-05-10T12:43:32.475Z,2.20
2023-05-10T12:45:59.772Z,3.50
2023-05-10T12:48:26.199Z,3.75
2023-05-10T12:50:52.711Z,3.60
2023-05-10T12:53:19.088Z,2.60
2023-05-10T12:55:45.665Z,4.10
2023-05-10T12:58:17.912Z,2.53
2023-05-10T13:00:54.820Z,2.90
2023-05-10T13:03:21.294Z,2.40
2023-05-10T13:05:47.753Z,3.67
2023-05-10T13:08:14.241Z,1.60
2023-05-10T13:10:41.207Z,2.45
2023-05-10T13:13:09.229Z,2.30
2023-05-10T13:15:35.945Z,2.20
2023-05-10T13:18:02.695Z,5.32
2023-05-10T13:20:29.241Z,6.97
2023-05-10T13:22:55.639Z,6.07
2023-05-10T13:25:22.083Z,4.60
2023-05-10T13:27:48.502Z,8.40
2023-05-10T13:30:15.192Z,5.75
2023-05-10T13:32:41.816Z,5.50
2023-05-10T13:35:09.007Z,6.28
2023-05-10T13:37:38.188Z,9.88
2023-05-10T13:40:05.592Z,4.57
2023-05-10T13:42:34.558Z,8.85
2023-05-10T13:45:02.633Z,5.85
2023-05-10T13:47:29.366Z,8.55
2023-05-10T13:49:56.210Z,6.22
2023-05-10T13:52:22.673Z,6.90
2023-05-10T13:54:51.689Z,8.70
2023-05-10T13:57:18.155Z,15.70
2023-05-10T13:59:44.614Z,7.28
2023-05-10T14:02:13.699Z,7.80
2023-05-10T14:04:40.323Z,8.15
2023-05-10T14:07:06.802Z,6.10
2023-05-10T14:09:33.253Z,5.78
2023-05-10T14:11:59.733Z,7.13
2023-05-10T14:14:26.295Z,9.98
2023-05-10T14:16:52.905Z,7.22
2023-05-10T14:19:19.376Z,7.38
2023-05-10T14:21:45.867Z,7.50
2023-05-10T14:24:15.480Z,6.75
2023-05-10T14:26:41.907Z,8.15
2023-05-10T14:29:09.947Z,9.48
2023-05-10T14:31:38.017Z,7.63
2023-05-10T14:34:04.438Z,7.38
2023-05-10T14:36:30.849Z,9.32
2023-05-10T14:38:57.250Z,8.90
2023-05-10T14:41:24.043Z,8.77
2023-05-10T14:43:51.679Z,7.57
2023-05-10T14:46:18.568Z,10.20
2023-05-10T14:48:45.010Z,8.57
2023-05-10T14:51:11.955Z,9.38
2023-05-10T14:53:39.489Z,9.40
2023-05-10T14:56:06.284Z,8.23
2023-05-10T14:58:34.147Z,11.25
2023-05-10T15:01:01.132Z,10.77
2023-05-10T15:03:28.190Z,12.15
2023-05-10T15:05:56.946Z,8.95
2023-05-10T15:08:24.535Z,8.52
2023-05-10T15:10:51.571Z,9.32
2023-05-10T15:13:18.124Z,7.40
2023-05-10T15:15:44.576Z,10.77
2023-05-10T15:18:11.693Z,8.85
2023-05-10T15:20:38.230Z,9.98
2023-05-10T15:23:04.730Z,9.50
2023-05-10T15:25:31.202Z,10.00
2023-05-10T15:27:57.595Z,9.10
2023-05-10T15:30:24.044Z,8.10
2023-05-10T15:32:50.872Z,8.10
2023-05-10T15:35:17.935Z,10.73
2023-05-10T15:37:44.544Z,8.80
2023-05-10T15:40:11.417Z,8.48
2023-05-10T15:42:37.874Z,7.32
2023-05-10T15:45:04.912Z,8.43
2023-05-10T15:47:31.721Z,8.88
2023-05-10T15:50:00.393Z,7.57
2023-05-10T15:52:27.227Z,7.03
2023-05-10T15:54:53.749Z,8.23
2023-05-10T15:57:20.173Z,7.65
2023-05-10T15:59:46.690Z,9.93
2023-05-10T16:02:13.788Z,7.90
2023-05-10T16:04:40.338Z,9.65
2023-05-10T16:07:07.020Z,7.63
2023-05-10T16:09:33.465Z,7.18
2023-05-10T16:11:59.956Z,6.63
2023-05-10T16:14:26.540Z,9.75
2023-05-10T16:16:53.088Z,7.57
2023-05-10T16:19:19.682Z,11.23
2023-05-10T16:21:47.265Z,8.05
2023-05-10T16:24:13.756Z,10.18
2023-05-10T16:26:41.106Z,6.90
2023-05-10T16:29:08.624Z,9.23
2023-05-10T16:31:35.468Z,7.95
2023-05-10T16:34:02.255Z,7.68
2023-05-10T16:36:29.612Z,7.95
2023-05-10T16:38:56.480Z,13.40
2023-05-10T16:41:22.976Z,15.23
2023-05-10T16:43:51.133Z,9.48
2023-05-10T16:46:17.590Z,6.57
2023-05-10T16:48:44.137Z,5.97
2023-05-10T16:51:10.656Z,6.75
2023-05-10T16:53:37.777Z,8.77
2023-05-10T16:56:04.426Z,12.23
2023-05-10T16:58:30.919Z,8.50
2023-05-10T17:00:57.314Z,7.05
2023-05-10T17:03:23.833Z,9.20
2023-05-10T17:05:51.666Z,6.93
2023-05-10T17:08:18.059Z,5.68
2023-05-10T17:10:44.476Z,8.65
2023-05-10T17:13:10.941Z,6.30
2023-05-10T17:15:40.049Z,6.15
2023-05-10T17:18:07.514Z,4.90
2023-05-10T17:20:34.360Z,4.03
2023-05-10T17:23:02.608Z,4.13
2023-05-10T17:25:29.346Z,4.75
2023-05-10T17:27:55.770Z,4.45
2023-05-10T17:30:26.250Z,3.67
2023-05-10T17:32:54.135Z,5.35
2023-05-10T17:35:21.319Z,5.18
2023-05-10T17:37:47.921Z,5.90
2023-05-10T17:40:14.649Z,4.47
2023-05-10T17:42:41.812Z,3.63
2023-05-10T17:45:08.954Z,5.50
2023-05-10T17:47:35.647Z,4.75
2023-05-10T17:50:02.269Z,8.60
2023-05-10T17:52:31.364Z,7.30
2023-05-10T17:54:59.681Z,8.68
2023-05-10T17:57:26.278Z,6.72
2023-05-10T17:59:55.280Z,5.45
2023-05-10T18:02:21.884Z,8.52
2023-05-10T18:04:49.753Z,5.47
2023-05-10T18:07:16.496Z,6.20
2023-05-10T18:09:42.950Z,5.90
2023-05-10T18:12:09.380Z,6.20
2023-05-10T18:14:41.017Z,7.40
2023-05-10T18:17:09.048Z,6.30
2023-05-10T18:19:35.727Z,8.05
2023-05-10T18:22:04.125Z,9.63
2023-05-10T18:27:03.313Z,8.60
2023-05-10T18:29:29.812Z,7.22
2023-05-10T18:31:56.376Z,6.88
2023-05-10T18:34:22.882Z,9.23
2023-05-10T18:36:49.450Z,9.25
2023-05-10T18:39:17.938Z,6.53
2023-05-10T18:41:45.704Z,7.93
2023-05-10T18:44:14.982Z,7.32
2023-05-10T18:46:42.564Z,7.68
2023-05-10T18:49:09.290Z,9.15
2023-05-10T18:51:36.022Z,9.10
2023-05-10T18:54:02.599Z,13.65
2023-05-10T18:56:29.118Z,8.18
2023-05-10T18:58:55.755Z,8.98
2023-05-10T19:01:22.486Z,8.52
2023-05-10T19:03:48.951Z,8.18
2023-05-10T19:06:16.509Z,7.22
2023-05-10T19:08:43.164Z,9.70
2023-05-10T19:11:09.658Z,7.53
2023-05-10T19:13:38.558Z,10.30
2023-05-10T19:16:20.214Z,9.45
2023-05-10T19:18:47.064Z,9.35
2023-05-10T19:21:13.725Z,9.95
2023-05-10T19:23:41.948Z,8.90
2023-05-10T19:26:10.538Z,11.75
2023-05-10T19:28:38.501Z,9.90
2023-05-10T19:31:06.048Z,9.48
2023-05-10T19:33:36.216Z,12.32
2023-05-10T19:36:04.282Z,9.40
2023-05-10T19:38:34.410Z,12.52
2023-05-10T19:43:28.598Z,10.68
2023-05-10T19:46:00.014Z,9.50
2023-05-10T19:48:27.690Z,9.30
2023-05-10T19:50:54.724Z,10.90
2023-05-10T19:53:21.381Z,10.70
2023-05-10T19:55:48.350Z,14.52
2023-05-10T19:58:14.804Z,11.13
2023-05-10T20:00:41.262Z,13.13
2023-05-10T20:03:09.464Z,10.30
2023-05-10T20:05:36.080Z,10.52
2023-05-10T20:08:02.881Z,10.20
2023-05-10T20:10:29.544Z,11.15
2023-05-10T20:12:56.156Z,10.18
2023-05-10T20:15:24.291Z,15.10
2023-05-10T20:17:53.120Z,14.32
2023-05-10T20:20:20.627Z,14.07
2023-05-10T20:22:48.321Z,9.65
2023-05-10T20:25:16.562Z,10.40
2023-05-10T20:27:43.438Z,9.80
2023-05-10T20:30:10.446Z,10.52
2023-05-10T20:32:38.636Z,14.15
2023-05-10T20:35:06.181Z,9.00
2023-05-10T20:37:32.958Z,12.65
2023-05-10T20:40:00.801Z,12.05
2023-05-10T20:42:27.352Z,11.07
2023-05-10T20:44:53.804Z,13.93
2023-05-10T20:47:20.438Z,14.43
2023-05-10T20:49:46.862Z,11.15
2023-05-10T20:52:14.476Z,14.82
2023-05-10T20:54:40.869Z,14.50
2023-05-10T20:57:07.572Z,11.48
2023-05-10T20:59:34.231Z,12.07
2023-05-10T21:02:01.052Z,13.40
2023-05-10T21:04:27.828Z,12.98
2023-05-10T21:06:55.624Z,11.15
2023-05-10T21:09:22.514Z,11.43
2023-05-10T21:11:50.179Z,12.57
2023-05-10T21:14:16.752Z,13.40
2023-05-10T21:16:43.587Z,13.73
2023-05-10T21:19:10.244Z,9.95
2023-05-10T21:21:36.769Z,13.48
2023-05-10T21:24:03.448Z,13.45
2023-05-10T21:26:29.964Z,10.05
2023-05-10T21:28:56.596Z,10.27
2023-05-10T21:31:23.113Z,14.60
2023-05-10T21:33:49.540Z,9.43
2023-05-10T21:36:16.240Z,11.25
2023-05-10T21:38:44.434Z,13.02
2023-05-10T21:41:11.311Z,9.98
2023-05-10T21:43:37.861Z,13.07
2023-05-10T21:46:04.668Z,11.85
2023-05-10T21:48:32.542Z,10.98
2023-05-10T21:50:59.391Z,12.55
2023-05-10T21:53:25.873Z,12.65
2023-05-10T21:55:52.447Z,11.85
2023-05-10T21:58:18.930Z,11.77
2023-05-10T22:00:45.971Z,10.02
2023-05-10T22:03:13.622Z,16.15
2023-05-10T22:05:40.312Z,9.52
2023-05-10T22:08:07.580Z,12.30
2023-05-10T22:10:34.098Z,11.32
2023-05-10T22:13:00.730Z,11.32
2023-05-10T22:15:27.260Z,11.32
2023-05-10T22:17:54.833Z,11.15
2023-05-10T22:20:21.373Z,10.85
2023-05-10T22:22:47.809Z,10.90
2023-05-10T22:25:14.462Z,13.27
2023-05-10T22:27:40.972Z,12.38
2023-05-10T22:30:08.152Z,12.40
2023-05-10T22:32:34.729Z,11.20
2023-05-10T22:35:01.291Z,11.07
2023-05-10T22:37:27.803Z,12.68
2023-05-10T22:39:54.240Z,11.35
2023-05-10T22:42:22.136Z,11.48
2023-05-10T22:44:48.627Z,14.05
2023-05-10T22:47:16.349Z,11.75
2023-05-10T22:49:42.797Z,11.23
2023-05-10T22:52:09.752Z,13.07
2023-05-10T22:54:36.384Z,13.68
2023-05-10T22:57:03.144Z,16.48
2023-05-10T22:59:29.650Z,14.23
2023-05-10T23:01:56.190Z,13.20
2023-05-10T23:04:22.724Z,15.57
2023-05-10T23:06:49.445Z,18.83
2023-05-10T23:09:16.375Z,15.35
2023-05-10T23:11:43.104Z,17.10
2023-05-10T23:14:09.597Z,13.68
2023-05-10T23:16:36.137Z,13.32
2023-05-10T23:19:02.728Z,12.98
2023-05-10T23:21:31.303Z,15.48
2023-05-10T23:23:58.596Z,15.27
2023-05-10T23:26:25.137Z,13.77
2023-05-10T23:28:51.651Z,15.57
2023-05-10T23:31:18.401Z,14.75
2023-05-10T23:33:44.886Z,17.23
2023-05-10T23:36:11.530Z,14.05
2023-05-10T23:38:38.268Z,13.70
2023-05-10T23:41:04.742Z,18.60
2023-05-10T23:43:31.564Z,16.92
2023-05-10T23:45:58.568Z,14.52
2023-05-10T23:48:25.156Z,18.17
2023-05-10T23:50:51.785Z,14.15
2023-05-10T23:53:18.334Z,17.02
2023-05-10T23:55:45.354Z,16.13
2023-05-10T23:58:12.517Z,13.77
